sensor_id;sensor_type;location;lat;lon;timestamp;P1;durP1;ratioP1;P2;durP2;ratioP2
84668;SDS011;74897;42.704;23.318;2024-03-23T00:52:36;26.55;;;12.20;;
84668;SDS011;74897;42.704;23.318;2024-03-23T00:55:01;30.27;;;11.95;;
84668;SDS011;74897;42.704;23.318;2024-03-23T00:57:26;25.05;;;12.10;;
84668;SDS011;74897;42.704;23.318;2024-03-23T00:59:52;28.20;;;11.73;;
84668;SDS011;74897;42.704;23.318;2024-03-23T01:02:17;23.60;;;11.93;;
84668;SDS011;74897;42.704;23.318;2024-03-23T01:04:42;23.02;;;11.73;;
84668;SDS011;74897;42.704;23.318;2024-03-23T01:07:07;28.38;;;12.30;;
84668;SDS011;74897;42.704;23.318;2024-03-23T01:09:33;21.87;;;12.27;;
84668;SDS011;74897;42.704;23.318;2024-03-23T01:11:58;22.00;;;11.70;;
84668;SDS011;74897;42.704;23.318;2024-03-23T01:14:23;24.65;;;11.75;;
84668;SDS011;74897;42.704;23.318;2024-03-23T01:16:49;24.38;;;11.90;;
84668;SDS011;74897;42.704;23.318;2024-03-23T01:19:14;21.50;;;11.27;;
84668;SDS011;74897;42.704;23.318;2024-03-23T01:21:39;24.08;;;10.93;;
84668;SDS011;74897;42.704;23.318;2024-03-23T01:24:05;26.83;;;11.52;;
84668;SDS011;74897;42.704;23.318;2024-03-23T01:26:30;19.58;;;10.60;;
84668;SDS011;74897;42.704;23.318;2024-03-23T01:28:55;19.30;;;10.10;;
84668;SDS011;74897;42.704;23.318;2024-03-23T01:31:21;16.08;;;9.35;;
84668;SDS011;74897;42.704;23.318;2024-03-23T01:33:46;18.90;;;9.32;;
84668;SDS011;74897;42.704;23.318;2024-03-23T01:36:12;15.05;;;8.82;;
84668;SDS011;74897;42.704;23.318;2024-03-23T01:38:37;16.63;;;8.75;;
84668;SDS011;74897;42.704;23.318;2024-03-23T01:41:03;14.23;;;7.72;;
84668;SDS011;74897;42.704;23.318;2024-03-23T01:43:28;12.35;;;7.50;;
84668;SDS011;74897;42.704;23.318;2024-03-23T01:45:53;17.85;;;8.18;;
84668;SDS011;74897;42.704;23.318;2024-03-23T01:48:19;15.85;;;8.10;;
84668;SDS011;74897;42.704;23.318;2024-03-23T01:50:45;16.67;;;8.35;;
84668;SDS011;74897;42.704;23.318;2024-03-23T01:53:10;15.48;;;7.72;;
84668;SDS011;74897;42.704;23.318;2024-03-23T01:55:36;12.93;;;7.65;;
84668;SDS011;74897;42.704;23.318;2024-03-23T01:58:01;18.10;;;7.82;;
84668;SDS011;74897;42.704;23.318;2024-03-23T02:00:26;18.35;;;8.77;;
84668;SDS011;74897;42.704;23.318;2024-03-23T02:02:53;14.63;;;7.68;;
84668;SDS011;74897;42.704;23.318;2024-03-23T02:05:18;14.57;;;8.38;;
84668;SDS011;74897;42.704;23.318;2024-03-23T02:07:43;16.50;;;8.20;;
84668;SDS011;74897;42.704;23.318;2024-03-23T02:10:09;14.70;;;8.40;;
84668;SDS011;74897;42.704;23.318;2024-03-23T02:12:35;17.40;;;8.88;;
84668;SDS011;74897;42.704;23.318;2024-03-23T02:15:00;14.23;;;8.27;;
84668;SDS011;74897;42.704;23.318;2024-03-23T02:17:26;20.23;;;9.35;;
84668;SDS011;74897;42.704;23.318;2024-03-23T02:19:51;15.88;;;8.25;;
84668;SDS011;74897;42.704;23.318;2024-03-23T02:22:17;14.63;;;8.68;;
84668;SDS011;74897;42.704;23.318;2024-03-23T02:24:42;14.80;;;8.02;;
84668;SDS011;74897;42.704;23.318;2024-03-23T02:27:08;19.33;;;8.55;;
84668;SDS011;74897;42.704;23.318;2024-03-23T02:29:33;14.95;;;8.98;;
84668;SDS011;74897;42.704;23.318;2024-03-23T02:31:58;15.82;;;8.70;;
84668;SDS011;74897;42.704;23.318;2024-03-23T02:34:24;16.20;;;8.48;;
84668;SDS011;74897;42.704;23.318;2024-03-23T02:36:49;13.75;;;7.60;;
84668;SDS011;74897;42.704;23.318;2024-03-23T02:39:15;15.63;;;8.45;;
84668;SDS011;74897;42.704;23.318;2024-03-23T02:41:40;15.88;;;8.27;;
84668;SDS011;74897;42.704;23.318;2024-03-23T02:44:05;23.85;;;11.65;;
84668;SDS011;74897;42.704;23.318;2024-03-23T02:46:31;17.92;;;9.02;;
84668;SDS011;74897;42.704;23.318;2024-03-23T02:48:57;16.10;;;8.63;;
84668;SDS011;74897;42.704;23.318;2024-03-23T02:51:22;13.65;;;7.32;;
84668;SDS011;74897;42.704;23.318;2024-03-23T02:53:47;13.02;;;7.45;;
84668;SDS011;74897;42.704;23.318;2024-03-23T02:56:13;12.18;;;6.05;;
84668;SDS011;74897;42.704;23.318;2024-03-23T02:58:41;10.85;;;6.07;;
84668;SDS011;74897;42.704;23.318;2024-03-23T03:01:06;10.50;;;5.70;;
84668;SDS011;74897;42.704;23.318;2024-03-23T03:03:31;10.57;;;6.72;;
84668;SDS011;74897;42.704;23.318;2024-03-23T03:05:57;9.57;;;6.05;;
84668;SDS011;74897;42.704;23.318;2024-03-23T03:08:23;11.50;;;6.57;;
84668;SDS011;74897;42.704;23.318;2024-03-23T03:10:48;9.43;;;6.38;;
84668;SDS011;74897;42.704;23.318;2024-03-23T03:13:13;9.88;;;6.03;;
84668;SDS011;74897;42.704;23.318;2024-03-23T03:15:40;10.80;;;6.07;;
84668;SDS011;74897;42.704;23.318;2024-03-23T03:18:05;12.63;;;6.78;;
84668;SDS011;74897;42.704;23.318;2024-03-23T03:20:30;12.15;;;6.43;;
84668;SDS011;74897;42.704;23.318;2024-03-23T03:22:56;12.13;;;6.28;;
84668;SDS011;74897;42.704;23.318;2024-03-23T03:25:22;10.30;;;6.60;;
84668;SDS011;74897;42.704;23.318;2024-03-23T03:27:47;8.93;;;5.63;;
84668;SDS011;74897;42.704;23.318;2024-03-23T03:30:13;11.50;;;5.20;;
84668;SDS011;74897;42.704;23.318;2024-03-23T03:32:38;9.55;;;5.32;;
84668;SDS011;74897;42.704;23.318;2024-03-23T03:35:03;9.27;;;5.82;;
84668;SDS011;74897;42.704;23.318;2024-03-23T03:37:29;8.45;;;5.53;;
84668;SDS011;74897;42.704;23.318;2024-03-23T03:39:55;9.32;;;6.28;;
84668;SDS011;74897;42.704;23.318;2024-03-23T03:42:20;12.63;;;6.18;;
84668;SDS011;74897;42.704;23.318;2024-03-23T03:44:45;9.57;;;6.10;;
84668;SDS011;74897;42.704;23.318;2024-03-23T03:47:11;7.47;;;5.38;;
84668;SDS011;74897;42.704;23.318;2024-03-23T03:49:36;11.35;;;6.03;;
84668;SDS011;74897;42.704;23.318;2024-03-23T03:52:01;8.30;;;5.13;;
84668;SDS011;74897;42.704;23.318;2024-03-23T03:54:27;10.85;;;5.80;;
84668;SDS011;74897;42.704;23.318;2024-03-23T03:56:52;8.07;;;5.43;;
84668;SDS011;74897;42.704;23.318;2024-03-23T03:59:18;9.93;;;5.50;;
84668;SDS011;74897;42.704;23.318;2024-03-23T04:01:43;10.05;;;5.88;;
84668;SDS011;74897;42.704;23.318;2024-03-23T04:04:08;10.32;;;5.45;;
84668;SDS011;74897;42.704;23.318;2024-03-23T04:06:34;12.02;;;6.10;;
84668;SDS011;74897;42.704;23.318;2024-03-23T04:08:59;18.10;;;8.70;;
84668;SDS011;74897;42.704;23.318;2024-03-23T04:11:25;26.20;;;9.77;;
84668;SDS011;74897;42.704;23.318;2024-03-23T04:13:50;27.55;;;10.95;;
84668;SDS011;74897;42.704;23.318;2024-03-23T04:16:28;26.17;;;9.75;;
84668;SDS011;74897;42.704;23.318;2024-03-23T04:18:53;28.13;;;12.13;;
84668;SDS011;74897;42.704;23.318;2024-03-23T04:21:19;21.90;;;9.98;;
84668;SDS011;74897;42.704;23.318;2024-03-23T04:23:44;14.98;;;7.70;;
84668;SDS011;74897;42.704;23.318;2024-03-23T04:26:10;11.15;;;6.18;;
84668;SDS011;74897;42.704;23.318;2024-03-23T04:28:35;14.35;;;6.25;;
84668;SDS011;74897;42.704;23.318;2024-03-23T04:31:03;12.48;;;6.78;;
84668;SDS011;74897;42.704;23.318;2024-03-23T04:33:29;10.43;;;6.30;;
84668;SDS011;74897;42.704;23.318;2024-03-23T04:35:54;9.93;;;6.18;;
84668;SDS011;74897;42.704;23.318;2024-03-23T04:38:19;9.73;;;6.20;;
84668;SDS011;74897;42.704;23.318;2024-03-23T04:40:45;8.23;;;6.05;;
84668;SDS011;74897;42.704;23.318;2024-03-23T04:43:10;10.20;;;5.32;;
84668;SDS011;74897;42.704;23.318;2024-03-23T04:45:35;9.50;;;5.95;;
84668;SDS011;74897;42.704;23.318;2024-03-23T04:48:01;15.68;;;7.00;;
84668;SDS011;74897;42.704;23.318;2024-03-23T04:50:26;10.02;;;6.57;;
84668;SDS011;74897;42.704;23.318;2024-03-23T04:52:51;13.57;;;6.68;;
84668;SDS011;74897;42.704;23.318;2024-03-23T04:55:17;8.63;;;5.63;;
84668;SDS011;74897;42.704;23.318;2024-03-23T04:57:42;12.48;;;6.50;;
84668;SDS011;74897;42.704;23.318;2024-03-23T05:00:07;11.05;;;6.70;;
84668;SDS011;74897;42.704;23.318;2024-03-23T05:02:42;12.25;;;7.15;;
84668;SDS011;74897;42.704;23.318;2024-03-23T05:05:08;13.65;;;7.22;;
84668;SDS011;74897;42.704;23.318;2024-03-23T05:07:33;13.00;;;6.20;;
84668;SDS011;74897;42.704;23.318;2024-03-23T05:09:58;16.37;;;7.20;;
84668;SDS011;74897;42.704;23.318;2024-03-23T05:12:24;10.00;;;6.57;;
84668;SDS011;74897;42.704;23.318;2024-03-23T05:14:49;13.70;;;7.70;;
84668;SDS011;74897;42.704;23.318;2024-03-23T05:17:15;14.57;;;7.40;;
84668;SDS011;74897;42.704;23.318;2024-03-23T05:19:40;14.10;;;6.18;;
84668;SDS011;74897;42.704;23.318;2024-03-23T05:22:05;12.77;;;7.20;;
84668;SDS011;74897;42.704;23.318;2024-03-23T05:24:31;9.93;;;6.22;;
84668;SDS011;74897;42.704;23.318;2024-03-23T05:26:56;12.45;;;6.75;;
84668;SDS011;74897;42.704;23.318;2024-03-23T05:29:24;10.70;;;6.05;;
84668;SDS011;74897;42.704;23.318;2024-03-23T05:31:51;12.88;;;6.93;;
84668;SDS011;74897;42.704;23.318;2024-03-23T05:34:16;10.88;;;6.75;;
84668;SDS011;74897;42.704;23.318;2024-03-23T05:36:42;13.75;;;6.72;;
84668;SDS011;74897;42.704;23.318;2024-03-23T05:39:08;11.38;;;7.22;;
84668;SDS011;74897;42.704;23.318;2024-03-23T05:41:33;13.88;;;7.43;;
84668;SDS011;74897;42.704;23.318;2024-03-23T05:44:01;13.73;;;8.10;;
84668;SDS011;74897;42.704;23.318;2024-03-23T05:46:26;11.93;;;8.00;;
84668;SDS011;74897;42.704;23.318;2024-03-23T05:48:51;19.25;;;10.48;;
84668;SDS011;74897;42.704;23.318;2024-03-23T05:51:17;17.92;;;9.00;;
84668;SDS011;74897;42.704;23.318;2024-03-23T05:53:42;15.02;;;7.93;;
84668;SDS011;74897;42.704;23.318;2024-03-23T05:56:08;19.48;;;8.75;;
84668;SDS011;74897;42.704;23.318;2024-03-23T05:58:34;13.65;;;7.78;;
84668;SDS011;74897;42.704;23.318;2024-03-23T06:01:02;19.33;;;8.05;;
84668;SDS011;74897;42.704;23.318;2024-03-23T06:03:28;14.57;;;7.32;;
84668;SDS011;74897;42.704;23.318;2024-03-23T06:05:53;14.85;;;7.32;;
84668;SDS011;74897;42.704;23.318;2024-03-23T06:08:19;15.00;;;6.90;;
84668;SDS011;74897;42.704;23.318;2024-03-23T06:10:45;17.40;;;7.35;;
84668;SDS011;74897;42.704;23.318;2024-03-23T06:13:10;12.90;;;7.68;;
84668;SDS011;74897;42.704;23.318;2024-03-23T06:15:36;18.00;;;8.02;;
84668;SDS011;74897;42.704;23.318;2024-03-23T06:18:03;13.82;;;7.90;;
84668;SDS011;74897;42.704;23.318;2024-03-23T06:20:29;15.18;;;8.35;;
84668;SDS011;74897;42.704;23.318;2024-03-23T06:22:54;16.23;;;8.45;;
84668;SDS011;74897;42.704;23.318;2024-03-23T06:25:19;12.20;;;7.30;;
84668;SDS011;74897;42.704;23.318;2024-03-23T06:27:46;12.05;;;8.02;;
84668;SDS011;74897;42.704;23.318;2024-03-23T06:30:11;13.45;;;7.00;;
84668;SDS011;74897;42.704;23.318;2024-03-23T06:32:37;14.27;;;7.65;;
84668;SDS011;74897;42.704;23.318;2024-03-23T06:35:02;14.50;;;8.43;;
84668;SDS011;74897;42.704;23.318;2024-03-23T06:37:33;16.50;;;8.48;;
84668;SDS011;74897;42.704;23.318;2024-03-23T06:39:58;13.05;;;7.57;;
84668;SDS011;74897;42.704;23.318;2024-03-23T06:42:24;14.27;;;8.82;;
84668;SDS011;74897;42.704;23.318;2024-03-23T06:44:49;15.45;;;8.07;;
84668;SDS011;74897;42.704;23.318;2024-03-23T06:47:14;12.27;;;7.67;;
84668;SDS011;74897;42.704;23.318;2024-03-23T06:49:39;19.15;;;8.45;;
84668;SDS011;74897;42.704;23.318;2024-03-23T06:52:05;14.85;;;8.18;;
84668;SDS011;74897;42.704;23.318;2024-03-23T06:54:30;16.65;;;8.50;;
84668;SDS011;74897;42.704;23.318;2024-03-23T06:56:55;16.48;;;9.10;;
84668;SDS011;74897;42.704;23.318;2024-03-23T06:59:21;14.35;;;7.85;;
84668;SDS011;74897;42.704;23.318;2024-03-23T07:01:46;14.68;;;8.20;;
84668;SDS011;74897;42.704;23.318;2024-03-23T07:04:11;17.42;;;8.20;;
84668;SDS011;74897;42.704;23.318;2024-03-23T07:06:43;17.83;;;8.50;;
84668;SDS011;74897;42.704;23.318;2024-03-23T07:09:09;19.67;;;8.38;;
84668;SDS011;74897;42.704;23.318;2024-03-23T07:11:34;13.05;;;8.18;;
84668;SDS011;74897;42.704;23.318;2024-03-23T07:13:59;13.85;;;8.50;;
84668;SDS011;74897;42.704;23.318;2024-03-23T07:16:26;16.98;;;8.82;;
84668;SDS011;74897;42.704;23.318;2024-03-23T07:18:51;21.85;;;9.55;;
84668;SDS011;74897;42.704;23.318;2024-03-23T07:21:17;14.23;;;8.93;;
84668;SDS011;74897;42.704;23.318;2024-03-23T07:23:42;11.43;;;7.10;;
84668;SDS011;74897;42.704;23.318;2024-03-23T07:26:10;17.00;;;8.02;;
84668;SDS011;74897;42.704;23.318;2024-03-23T07:28:35;12.88;;;7.22;;
84668;SDS011;74897;42.704;23.318;2024-03-23T07:33:26;10.43;;;6.30;;
84668;SDS011;74897;42.704;23.318;2024-03-23T07:35:51;15.23;;;7.28;;
84668;SDS011;74897;42.704;23.318;2024-03-23T07:38:17;12.73;;;7.60;;
84668;SDS011;74897;42.704;23.318;2024-03-23T07:40:42;13.95;;;8.23;;
84668;SDS011;74897;42.704;23.318;2024-03-23T07:43:07;17.88;;;10.07;;
84668;SDS011;74897;42.704;23.318;2024-03-23T07:45:33;15.98;;;8.85;;
84668;SDS011;74897;42.704;23.318;2024-03-23T07:47:58;12.40;;;8.50;;
84668;SDS011;74897;42.704;23.318;2024-03-23T07:50:23;12.73;;;7.30;;
84668;SDS011;74897;42.704;23.318;2024-03-23T07:52:48;14.40;;;8.27;;
84668;SDS011;74897;42.704;23.318;2024-03-23T07:55:14;14.38;;;8.43;;
84668;SDS011;74897;42.704;23.318;2024-03-23T07:57:39;15.90;;;7.90;;
84668;SDS011;74897;42.704;23.318;2024-03-23T08:00:05;14.93;;;8.18;;
84668;SDS011;74897;42.704;23.318;2024-03-23T08:02:31;13.02;;;7.75;;
84668;SDS011;74897;42.704;23.318;2024-03-23T08:04:56;15.90;;;7.47;;
84668;SDS011;74897;42.704;23.318;2024-03-23T08:07:22;10.33;;;7.07;;
84668;SDS011;74897;42.704;23.318;2024-03-23T08:09:47;15.13;;;7.13;;
84668;SDS011;74897;42.704;23.318;2024-03-23T08:12:13;15.35;;;7.45;;
84668;SDS011;74897;42.704;23.318;2024-03-23T08:14:38;14.55;;;7.85;;
84668;SDS011;74897;42.704;23.318;2024-03-23T08:17:04;17.00;;;9.18;;
84668;SDS011;74897;42.704;23.318;2024-03-23T08:19:29;13.27;;;8.43;;
84668;SDS011;74897;42.704;23.318;2024-03-23T08:21:54;18.77;;;9.00;;
84668;SDS011;74897;42.704;23.318;2024-03-23T08:24:20;20.02;;;9.18;;
84668;SDS011;74897;42.704;23.318;2024-03-23T08:26:45;12.02;;;7.63;;
84668;SDS011;74897;42.704;23.318;2024-03-23T08:29:10;16.23;;;9.95;;
84668;SDS011;74897;42.704;23.318;2024-03-23T08:31:36;14.63;;;9.10;;
84668;SDS011;74897;42.704;23.318;2024-03-23T08:34:01;11.82;;;8.68;;
84668;SDS011;74897;42.704;23.318;2024-03-23T08:36:26;13.00;;;8.93;;
84668;SDS011;74897;42.704;23.318;2024-03-23T08:38:51;13.88;;;8.77;;
84668;SDS011;74897;42.704;23.318;2024-03-23T08:41:18;12.57;;;8.20;;
84668;SDS011;74897;42.704;23.318;2024-03-23T08:43:44;16.75;;;9.05;;
84668;SDS011;74897;42.704;23.318;2024-03-23T08:46:10;14.88;;;9.00;;
84668;SDS011;74897;42.704;23.318;2024-03-23T08:48:36;13.48;;;8.73;;
84668;SDS011;74897;42.704;23.318;2024-03-23T08:53:27;20.08;;;9.70;;
84668;SDS011;74897;42.704;23.318;2024-03-23T08:55:54;13.73;;;9.20;;
84668;SDS011;74897;42.704;23.318;2024-03-23T08:58:19;18.00;;;9.10;;
84668;SDS011;74897;42.704;23.318;2024-03-23T09:00:45;18.98;;;10.20;;
84668;SDS011;74897;42.704;23.318;2024-03-23T09:03:10;16.95;;;9.30;;
84668;SDS011;74897;42.704;23.318;2024-03-23T09:05:38;17.17;;;9.30;;
84668;SDS011;74897;42.704;23.318;2024-03-23T09:08:04;19.23;;;10.55;;
84668;SDS011;74897;42.704;23.318;2024-03-23T09:10:29;17.67;;;9.73;;
84668;SDS011;74897;42.704;23.318;2024-03-23T09:12:55;14.43;;;9.13;;
84668;SDS011;74897;42.704;23.318;2024-03-23T09:15:20;16.88;;;9.70;;
84668;SDS011;74897;42.704;23.318;2024-03-23T09:17:45;16.80;;;10.57;;
84668;SDS011;74897;42.704;23.318;2024-03-23T09:20:10;14.80;;;9.90;;
84668;SDS011;74897;42.704;23.318;2024-03-23T09:22:36;19.75;;;10.02;;
84668;SDS011;74897;42.704;23.318;2024-03-23T09:25:01;23.10;;;12.15;;
84668;SDS011;74897;42.704;23.318;2024-03-23T09:27:26;20.48;;;12.93;;
84668;SDS011;74897;42.704;23.318;2024-03-23T09:29:52;18.50;;;12.43;;
84668;SDS011;74897;42.704;23.318;2024-03-23T09:32:17;15.82;;;9.85;;
84668;SDS011;74897;42.704;23.318;2024-03-23T09:34:43;16.80;;;9.95;;
84668;SDS011;74897;42.704;23.318;2024-03-23T09:37:08;17.97;;;10.47;;
84668;SDS011;74897;42.704;23.318;2024-03-23T09:39:33;17.95;;;10.18;;
84668;SDS011;74897;42.704;23.318;2024-03-23T09:41:59;16.15;;;10.88;;
84668;SDS011;74897;42.704;23.318;2024-03-23T09:44:24;15.70;;;10.10;;
84668;SDS011;74897;42.704;23.318;2024-03-23T09:46:51;18.88;;;10.07;;
84668;SDS011;74897;42.704;23.318;2024-03-23T09:49:16;17.83;;;10.18;;
84668;SDS011;74897;42.704;23.318;2024-03-23T09:51:42;12.32;;;8.80;;
84668;SDS011;74897;42.704;23.318;2024-03-23T09:54:07;12.23;;;9.25;;
84668;SDS011;74897;42.704;23.318;2024-03-23T09:56:33;14.45;;;8.95;;
84668;SDS011;74897;42.704;23.318;2024-03-23T09:59:01;16.08;;;9.15;;
84668;SDS011;74897;42.704;23.318;2024-03-23T10:01:29;17.83;;;9.43;;
84668;SDS011;74897;42.704;23.318;2024-03-23T10:03:54;15.68;;;8.82;;
84668;SDS011;74897;42.704;23.318;2024-03-23T10:06:21;12.13;;;8.95;;
84668;SDS011;74897;42.704;23.318;2024-03-23T10:08:46;13.50;;;8.57;;
84668;SDS011;74897;42.704;23.318;2024-03-23T10:11:12;13.48;;;9.20;;
84668;SDS011;74897;42.704;23.318;2024-03-23T10:13:38;15.55;;;8.75;;
84668;SDS011;74897;42.704;23.318;2024-03-23T10:16:06;13.60;;;9.45;;
84668;SDS011;74897;42.704;23.318;2024-03-23T10:18:31;13.98;;;9.10;;
84668;SDS011;74897;42.704;23.318;2024-03-23T10:21:10;15.73;;;8.27;;
84668;SDS011;74897;42.704;23.318;2024-03-23T10:23:40;13.32;;;7.90;;
84668;SDS011;74897;42.704;23.318;2024-03-23T10:26:22;13.18;;;8.15;;
84668;SDS011;74897;42.704;23.318;2024-03-23T10:28:54;10.75;;;7.55;;
84668;SDS011;74897;42.704;23.318;2024-03-23T10:31:20;12.75;;;8.60;;
84668;SDS011;74897;42.704;23.318;2024-03-23T10:33:45;19.77;;;8.63;;
84668;SDS011;74897;42.704;23.318;2024-03-23T10:36:11;14.10;;;8.32;;
84668;SDS011;74897;42.704;23.318;2024-03-23T10:38:37;12.55;;;8.10;;
84668;SDS011;74897;42.704;23.318;2024-03-23T10:41:03;12.10;;;8.30;;
84668;SDS011;74897;42.704;23.318;2024-03-23T10:43:28;12.52;;;8.38;;
84668;SDS011;74897;42.704;23.318;2024-03-23T10:45:54;9.52;;;7.00;;
84668;SDS011;74897;42.704;23.318;2024-03-23T10:48:19;11.52;;;7.63;;
84668;SDS011;74897;42.704;23.318;2024-03-23T10:50:45;9.82;;;6.88;;
84668;SDS011;74897;42.704;23.318;2024-03-23T10:53:11;13.20;;;7.55;;
84668;SDS011;74897;42.704;23.318;2024-03-23T10:55:37;10.85;;;7.15;;
84668;SDS011;74897;42.704;23.318;2024-03-23T10:58:03;11.05;;;7.90;;
84668;SDS011;74897;42.704;23.318;2024-03-23T11:00:28;11.63;;;7.20;;
84668;SDS011;74897;42.704;23.318;2024-03-23T11:02:53;10.07;;;7.55;;
84668;SDS011;74897;42.704;23.318;2024-03-23T11:07:50;12.15;;;6.10;;
84668;SDS011;74897;42.704;23.318;2024-03-23T11:10:49;10.38;;;6.50;;
84668;SDS011;74897;42.704;23.318;2024-03-23T11:13:23;10.50;;;6.38;;
84668;SDS011;74897;42.704;23.318;2024-03-23T11:15:48;12.70;;;6.65;;
84668;SDS011;74897;42.704;23.318;2024-03-23T11:18:20;9.80;;;6.82;;
84668;SDS011;74897;42.704;23.318;2024-03-23T11:20:45;10.70;;;7.10;;
84668;SDS011;74897;42.704;23.318;2024-03-23T11:23:21;10.77;;;6.53;;
84668;SDS011;74897;42.704;23.318;2024-03-23T11:25:51;10.60;;;5.95;;
84668;SDS011;74897;42.704;23.318;2024-03-23T11:28:17;8.50;;;6.10;;
84668;SDS011;74897;42.704;23.318;2024-03-23T11:30:42;8.68;;;5.95;;
84668;SDS011;74897;42.704;23.318;2024-03-23T11:33:08;11.27;;;6.03;;
84668;SDS011;74897;42.704;23.318;2024-03-23T11:35:42;10.75;;;6.68;;
84668;SDS011;74897;42.704;23.318;2024-03-23T11:40:33;8.15;;;6.32;;
84668;SDS011;74897;42.704;23.318;2024-03-23T11:43:00;9.57;;;5.85;;
84668;SDS011;74897;42.704;23.318;2024-03-23T11:45:25;9.93;;;6.28;;
84668;SDS011;74897;42.704;23.318;2024-03-23T11:48:09;8.27;;;5.95;;
84668;SDS011;74897;42.704;23.318;2024-03-23T11:50:39;8.73;;;5.63;;
84668;SDS011;74897;42.704;23.318;2024-03-23T11:55:43;7.63;;;5.72;;
84668;SDS011;74897;42.704;23.318;2024-03-23T11:58:12;9.63;;;6.95;;
84668;SDS011;74897;42.704;23.318;2024-03-23T12:00:38;7.13;;;4.53;;
84668;SDS011;74897;42.704;23.318;2024-03-23T12:03:03;7.28;;;5.38;;
84668;SDS011;74897;42.704;23.318;2024-03-23T12:05:29;8.57;;;5.32;;
84668;SDS011;74897;42.704;23.318;2024-03-23T12:07:55;6.97;;;5.30;;
84668;SDS011;74897;42.704;23.318;2024-03-23T12:10:20;9.38;;;5.22;;
84668;SDS011;74897;42.704;23.318;2024-03-23T12:12:46;9.68;;;6.20;;
84668;SDS011;74897;42.704;23.318;2024-03-23T12:15:11;8.02;;;5.75;;
84668;SDS011;74897;42.704;23.318;2024-03-23T12:17:38;10.48;;;5.35;;
84668;SDS011;74897;42.704;23.318;2024-03-23T12:20:03;7.78;;;5.47;;
84668;SDS011;74897;42.704;23.318;2024-03-23T12:22:29;9.23;;;5.18;;
84668;SDS011;74897;42.704;23.318;2024-03-23T12:24:54;5.03;;;4.53;;
84668;SDS011;74897;42.704;23.318;2024-03-23T12:27:20;5.57;;;4.35;;
84668;SDS011;74897;42.704;23.318;2024-03-23T12:29:45;6.07;;;4.70;;
84668;SDS011;74897;42.704;23.318;2024-03-23T12:32:12;6.55;;;4.95;;
84668;SDS011;74897;42.704;23.318;2024-03-23T12:34:37;7.90;;;4.68;;
84668;SDS011;74897;42.704;23.318;2024-03-23T12:37:03;4.75;;;4.25;;
84668;SDS011;74897;42.704;23.318;2024-03-23T12:39:28;5.82;;;4.10;;
84668;SDS011;74897;42.704;23.318;2024-03-23T12:41:53;5.18;;;4.10;;
84668;SDS011;74897;42.704;23.318;2024-03-23T12:44:19;4.82;;;4.40;;
84668;SDS011;74897;42.704;23.318;2024-03-23T12:46:44;7.22;;;4.25;;
84668;SDS011;74897;42.704;23.318;2024-03-23T12:49:10;5.57;;;3.65;;
84668;SDS011;74897;42.704;23.318;2024-03-23T12:51:35;5.32;;;3.58;;
84668;SDS011;74897;42.704;23.318;2024-03-23T12:54:01;5.68;;;3.78;;
84668;SDS011;74897;42.704;23.318;2024-03-23T12:56:26;3.45;;;2.60;;
84668;SDS011;74897;42.704;23.318;2024-03-23T12:58:53;2.67;;;2.47;;
84668;SDS011;74897;42.704;23.318;2024-03-23T13:01:20;7.43;;;5.53;;
84668;SDS011;74897;42.704;23.318;2024-03-23T13:03:48;4.35;;;3.95;;
84668;SDS011;74897;42.704;23.318;2024-03-23T13:06:14;2.28;;;1.60;;
84668;SDS011;74897;42.704;23.318;2024-03-23T13:08:40;2.67;;;1.63;;
84668;SDS011;74897;42.704;23.318;2024-03-23T13:11:09;1.52;;;1.42;;
84668;SDS011;74897;42.704;23.318;2024-03-23T13:13:35;1.40;;;1.30;;
84668;SDS011;74897;42.704;23.318;2024-03-23T13:16:01;2.03;;;1.42;;
84668;SDS011;74897;42.704;23.318;2024-03-23T13:18:27;1.83;;;1.67;;
84668;SDS011;74897;42.704;23.318;2024-03-23T13:20:53;3.25;;;1.60;;
84668;SDS011;74897;42.704;23.318;2024-03-23T13:23:18;3.40;;;1.77;;
84668;SDS011;74897;42.704;23.318;2024-03-23T13:25:53;1.60;;;1.50;;
84668;SDS011;74897;42.704;23.318;2024-03-23T13:28:19;1.40;;;1.30;;
84668;SDS011;74897;42.704;23.318;2024-03-23T13:30:54;1.27;;;1.20;;
84668;SDS011;74897;42.704;23.318;2024-03-23T13:33:19;2.42;;;1.52;;
84668;SDS011;74897;42.704;23.318;2024-03-23T13:35:55;1.70;;;1.60;;
84668;SDS011;74897;42.704;23.318;2024-03-23T13:38:21;3.28;;;1.70;;
84668;SDS011;74897;42.704;23.318;2024-03-23T13:40:50;1.45;;;1.15;;
84668;SDS011;74897;42.704;23.318;2024-03-23T13:43:15;1.60;;;1.50;;
84668;SDS011;74897;42.704;23.318;2024-03-23T13:45:41;1.27;;;1.17;;
84668;SDS011;74897;42.704;23.318;2024-03-23T13:48:06;1.60;;;1.50;;
84668;SDS011;74897;42.704;23.318;2024-03-23T13:50:32;1.73;;;1.63;;
84668;SDS011;74897;42.704;23.318;2024-03-23T13:52:57;1.50;;;1.40;;
84668;SDS011;74897;42.704;23.318;2024-03-23T13:55:22;2.45;;;1.70;;
84668;SDS011;74897;42.704;23.318;2024-03-23T13:57:48;1.98;;;1.77;;
84668;SDS011;74897;42.704;23.318;2024-03-23T14:00:13;2.28;;;1.45;;
84668;SDS011;74897;42.704;23.318;2024-03-23T14:02:39;2.25;;;1.90;;
84668;SDS011;74897;42.704;23.318;2024-03-23T14:05:05;3.38;;;1.90;;
84668;SDS011;74897;42.704;23.318;2024-03-23T14:07:30;2.50;;;2.00;;
84668;SDS011;74897;42.704;23.318;2024-03-23T14:09:55;1.73;;;1.63;;
84668;SDS011;74897;42.704;23.318;2024-03-23T14:12:21;1.73;;;1.63;;
84668;SDS011;74897;42.704;23.318;2024-03-23T14:14:46;1.75;;;1.65;;
84668;SDS011;74897;42.704;23.318;2024-03-23T14:17:11;1.67;;;1.58;;
84668;SDS011;74897;42.704;23.318;2024-03-23T14:19:39;1.92;;;1.80;;
84668;SDS011;74897;42.704;23.318;2024-03-23T14:22:04;2.38;;;2.22;;
84668;SDS011;74897;42.704;23.318;2024-03-23T14:24:32;2.13;;;1.80;;
84668;SDS011;74897;42.704;23.318;2024-03-23T14:26:57;1.83;;;1.73;;
84668;SDS011;74897;42.704;23.318;2024-03-23T14:29:23;2.47;;;2.28;;
84668;SDS011;74897;42.704;23.318;2024-03-23T14:31:48;2.00;;;1.90;;
84668;SDS011;74897;42.704;23.318;2024-03-23T14:34:14;2.20;;;2.08;;
84668;SDS011;74897;42.704;23.318;2024-03-23T14:36:40;2.42;;;2.00;;
84668;SDS011;74897;42.704;23.318;2024-03-23T14:39:05;2.42;;;2.22;;
84668;SDS011;74897;42.704;23.318;2024-03-23T14:41:31;3.63;;;2.53;;
84668;SDS011;74897;42.704;23.318;2024-03-23T14:43:56;2.20;;;2.10;;
84668;SDS011;74897;42.704;23.318;2024-03-23T14:46:22;3.00;;;2.70;;
84668;SDS011;74897;42.704;23.318;2024-03-23T14:48:47;2.53;;;2.25;;
84668;SDS011;74897;42.704;23.318;2024-03-23T14:51:13;2.70;;;2.25;;
84668;SDS011;74897;42.704;23.318;2024-03-23T14:53:39;4.05;;;2.70;;
84668;SDS011;74897;42.704;23.318;2024-03-23T14:56:07;3.72;;;3.10;;
84668;SDS011;74897;42.704;23.318;2024-03-23T14:58:34;3.92;;;3.63;;
84668;SDS011;74897;42.704;23.318;2024-03-23T15:01:03;7.53;;;2.92;;
84668;SDS011;74897;42.704;23.318;2024-03-23T15:03:28;2.53;;;2.42;;
84668;SDS011;74897;42.704;23.318;2024-03-23T15:05:54;2.42;;;2.22;;
84668;SDS011;74897;42.704;23.318;2024-03-23T15:08:20;2.85;;;2.65;;
84668;SDS011;74897;42.704;23.318;2024-03-23T15:10:45;4.10;;;3.70;;
84668;SDS011;74897;42.704;23.318;2024-03-23T15:13:10;6.90;;;5.13;;
84668;SDS011;74897;42.704;23.318;2024-03-23T15:15:39;3.33;;;3.03;;
84668;SDS011;74897;42.704;23.318;2024-03-23T15:18:06;10.57;;;7.72;;
84668;SDS011;74897;42.704;23.318;2024-03-23T15:20:31;6.38;;;5.07;;